Frontier Kotobuki — 3EXC5 — position and weather

sailwx.info

Track history (hours):
 
Tides and Currents Weather Stations Pressure Air Temp Water Temp Dewpoint Dewpoint Depression Visibility Wind Speed Wind Dir Waves Ship Positions

Frontier Kotobuki

Last reported at 2017-Jun-13 01:24 UTC. Time now 2017-Jun-25 00:18 UTC.
Position N 01°16' E 104°09'.
Warning: this ship's position is 11 days out of date.

Length 290 m; draft 18.5 m.

Type: Cargo ship. MMSI: 355036000.

Date/timePositionNaut miles runAvg speedWind from/ knotsBaromVisibWave heightAir tempDewpointWater temp
2017-Jun-13 01:24N 01°16' E 104°09'511.5
2017-Jun-13 01:00N 01°15' E 104°05'510.0
2017-Jun-13 00:31N 01°16' E 103°60'3 5.7
2017-Jun-12 23:58N 01°16' E 103°57'0 0.2
2017-Jun-12 23:28N 01°16' E 103°57'0 0.1
2017-Jun-12 22:58N 01°16' E 103°57'0 0.1
2017-Jun-12 22:30N 01°16' E 103°57'0 0.0
2017-Jun-12 22:00N 01°16' E 103°57'0 0.1
2017-Jun-12 21:29N 01°16' E 103°57'0 0.2
2017-Jun-12 21:01N 01°16' E 103°57'0 0.1
2017-Jun-12 20:31N 01°16' E 103°57'0 0.0
2017-Jun-12 20:00N 01°16' E 103°57'0 0.0
2017-Jun-12 19:30N 01°16' E 103°57'0 0.1
2017-Jun-12 19:00N 01°16' E 103°57'0 0.2
2017-Jun-12 18:27N 01°16' E 103°57'0 0.5
2017-Jun-12 17:57N 01°16' E 103°57'0 0.2
2017-Jun-12 17:29N 01°16' E 103°57'0 0.1
2017-Jun-12 17:01N 01°16' E 103°57'0 0.0
2017-Jun-12 16:31N 01°16' E 103°57'0 0.0
2017-Jun-12 15:50N 01°16' E 103°57'0 0.2
2017-Jun-12 15:28N 01°16' E 103°57'0 0.1
2017-Jun-12 14:58N 01°16' E 103°57'0 0.1
2017-Jun-12 14:30N 01°16' E 103°57'0 0.0
2017-Jun-12 13:30N 01°16' E 103°57'0 0.1
2017-Jun-12 13:01N 01°16' E 103°57'0 0.1
2017-Jun-12 12:29N 01°16' E 103°57'0 0.0
2017-Jun-12 11:59N 01°16' E 103°57'0 0.0
2017-Jun-12 11:31N 01°16' E 103°57'0 0.0
2017-Jun-12 10:59N 01°16' E 103°57'0 0.0
2017-Jun-12 10:30N 01°16' E 103°57'0 0.0
2017-Jun-12 10:00N 01°16' E 103°57'0 0.2
2017-Jun-12 09:30N 01°16' E 103°57'0 0.1
2017-Jun-12 09:00N 01°16' E 103°57'0 0.2
2017-Jun-12 08:27N 01°16' E 103°57'0 0.2
2017-Jun-12 08:00N 01°16' E 103°57'0 0.1
2017-Jun-12 07:29N 01°16' E 103°57'0 0.1
2017-Jun-12 07:00N 01°16' E 103°57'0 0.0
2017-Jun-12 06:30N 01°16' E 103°57'0 0.0
2017-Jun-12 05:58N 01°16' E 103°57'0 0.2
2017-Jun-12 05:31N 01°16' E 103°57'0 0.2
2017-Jun-12 05:00N 01°16' E 103°57'0 0.1
2017-Jun-12 04:31N 01°16' E 103°57'1 2.0
2017-Jun-12 04:01N 01°15' E 103°58'2 3.9
2017-Jun-12 03:31N 01°14' E 103°56'4 7.6
2017-Jun-12 03:00N 01°12' E 103°53'4 8.2
2017-Jun-12 02:31N 01°11' E 103°49'4 7.5
2017-Jun-12 02:01N 01°09' E 103°46'4 8.6
2017-Jun-12 01:30N 01°06' E 103°43'4 8.9
2017-Jun-12 01:00N 01°03' E 103°39'5 9.0
2017-Jun-12 00:30N 01°05' E 103°35'5 8.8
2017-Jun-11 23:59N 01°08' E 103°31'4 9.1
2017-Jun-11 23:31N 01°10' E 103°27'5 9.7
2017-Jun-11 23:01N 01°13' E 103°23'510.2
2017-Jun-11 22:29N 01°16' E 103°19'2710.0
2017-Jun-11 19:43N 01°32' E 102°57'27 9.1
2017-Jun-11 16:43N 01°44' E 102°32'2 9.9
2017-Jun-11 16:30N 01°45' E 102°30'510.2
2017-Jun-11 16:00N 01°48' E 102°26'5 9.8
2017-Jun-11 15:27N 01°50' E 102°21'  
Track history (hours):
 
Tides and Currents Weather Stations Pressure Air Temp Water Temp Dewpoint Dewpoint Depression Visibility Wind Speed Wind Dir Waves Ship Positions

Frontier Kotobuki

Last reported at 2017-Jun-13 01:24 UTC. Time now 2017-Jun-25 00:18 UTC.
Position N 01°16' E 104°09'.
Warning: this ship's position is 11 days out of date.

Length 290 m; draft 18.5 m.

Type: Cargo ship. MMSI: 355036000.

Date/timePositionNaut miles runAvg speedWind from/ knotsBaromVisibWave heightAir tempDewpointWater temp
2017-Jun-13 01:24N 01°16' E 104°09'511.5
2017-Jun-13 01:00N 01°15' E 104°05'510.0
2017-Jun-13 00:31N 01°16' E 103°60'3 5.7
2017-Jun-12 23:58N 01°16' E 103°57'0 0.2
2017-Jun-12 23:28N 01°16' E 103°57'0 0.1
2017-Jun-12 22:58N 01°16' E 103°57'0 0.1
2017-Jun-12 22:30N 01°16' E 103°57'0 0.0
2017-Jun-12 22:00N 01°16' E 103°57'0 0.1
2017-Jun-12 21:29N 01°16' E 103°57'0 0.2
2017-Jun-12 21:01N 01°16' E 103°57'0 0.1
2017-Jun-12 20:31N 01°16' E 103°57'0 0.0
2017-Jun-12 20:00N 01°16' E 103°57'0 0.0
2017-Jun-12 19:30N 01°16' E 103°57'0 0.1
2017-Jun-12 19:00N 01°16' E 103°57'0 0.2
2017-Jun-12 18:27N 01°16' E 103°57'0 0.5
2017-Jun-12 17:57N 01°16' E 103°57'0 0.2
2017-Jun-12 17:29N 01°16' E 103°57'0 0.1
2017-Jun-12 17:01N 01°16' E 103°57'0 0.0
2017-Jun-12 16:31N 01°16' E 103°57'0 0.0
2017-Jun-12 15:50N 01°16' E 103°57'0 0.2
2017-Jun-12 15:28N 01°16' E 103°57'0 0.1
2017-Jun-12 14:58N 01°16' E 103°57'0 0.1
2017-Jun-12 14:30N 01°16' E 103°57'0 0.0
2017-Jun-12 13:30N 01°16' E 103°57'0 0.1
2017-Jun-12 13:01N 01°16' E 103°57'0 0.1
2017-Jun-12 12:29N 01°16' E 103°57'0 0.0
2017-Jun-12 11:59N 01°16' E 103°57'0 0.0
2017-Jun-12 11:31N 01°16' E 103°57'0 0.0
2017-Jun-12 10:59N 01°16' E 103°57'0 0.0
2017-Jun-12 10:30N 01°16' E 103°57'0 0.0
2017-Jun-12 10:00N 01°16' E 103°57'0 0.2
2017-Jun-12 09:30N 01°16' E 103°57'0 0.1
2017-Jun-12 09:00N 01°16' E 103°57'0 0.2
2017-Jun-12 08:27N 01°16' E 103°57'0 0.2
2017-Jun-12 08:00N 01°16' E 103°57'0 0.1
2017-Jun-12 07:29N 01°16' E 103°57'0 0.1
2017-Jun-12 07:00N 01°16' E 103°57'0 0.0
2017-Jun-12 06:30N 01°16' E 103°57'0 0.0
2017-Jun-12 05:58N 01°16' E 103°57'0 0.2
2017-Jun-12 05:31N 01°16' E 103°57'0 0.2
2017-Jun-12 05:00N 01°16' E 103°57'0 0.1
2017-Jun-12 04:31N 01°16' E 103°57'1 2.0
2017-Jun-12 04:01N 01°15' E 103°58'2 3.9
2017-Jun-12 03:31N 01°14' E 103°56'4 7.6
2017-Jun-12 03:00N 01°12' E 103°53'4 8.2
2017-Jun-12 02:31N 01°11' E 103°49'4 7.5
2017-Jun-12 02:01N 01°09' E 103°46'4 8.6
2017-Jun-12 01:30N 01°06' E 103°43'4 8.9
2017-Jun-12 01:00N 01°03' E 103°39'5 9.0
2017-Jun-12 00:30N 01°05' E 103°35'5 8.8
2017-Jun-11 23:59N 01°08' E 103°31'4 9.1
2017-Jun-11 23:31N 01°10' E 103°27'5 9.7
2017-Jun-11 23:01N 01°13' E 103°23'510.2
2017-Jun-11 22:29N 01°16' E 103°19'2710.0
2017-Jun-11 19:43N 01°32' E 102°57'27 9.1
2017-Jun-11 16:43N 01°44' E 102°32'2 9.9
2017-Jun-11 16:30N 01°45' E 102°30'510.2
2017-Jun-11 16:00N 01°48' E 102°26'5 9.8
2017-Jun-11 15:27N 01°50' E 102°21'  

Dump ship's entire track history